Time;durP1;ratioP1;P1;durP2;ratioP2;P2;SDS_P1;SDS_P2;PMS_P1;PMS_P2;Temp;Humidity;BMP_temperature;BMP_pressure;BME280_temperature;BME280_humidity;BME280_pressure;Samples;Min_cycle;Max_cycle;Signal;HPM_P1;HPM_P2
2023/03/12 00:01:28;;;;;;;;;;;;;;;0.36;74.90;96195.52;110171;1246;59673;-66
2023/03/12 00:04:00;;;;;;;;;;;;;;;0.37;74.93;96197.18;110204;1244;59665;-67
2023/03/12 00:06:30;;;;;;;;;;;;;;;0.38;74.63;96194.75;110200;1241;72040;-67
2023/03/12 00:09:00;;;;;;;;;;;;;;;0.34;74.65;96195.13;110157;1241;68714;-67
2023/03/12 00:11:30;;;;;;;;;;;;;;;0.31;74.98;96195.95;110170;1246;69278;-67
2023/03/12 00:13:59;;;;;;;;;;;;;;;0.31;74.59;96196.77;110165;1244;59692;-67
2023/03/12 00:16:28;;;;;;;;;;;;;;;0.31;74.55;96202.65;110173;1241;59675;-67
2023/03/12 00:18:57;;;;;;;;;;;;;;;0.29;74.40;96194.38;110161;1241;70367;-67
2023/03/12 00:21:27;;;;;;;;;;;;;;;0.25;74.71;96184.27;110163;1245;69288;-67
2023/03/12 00:23:56;;;;;;;;;;;;;;;0.21;74.91;96180.71;110140;1241;69300;-67
2023/03/12 00:26:25;;;;;;;;;;;;;;;0.18;74.65;96180.34;110212;1241;59761;-67
2023/03/12 00:28:55;;;;;;;;;;;;;;;0.13;74.60;96183.69;110186;1244;59701;-67
2023/03/12 00:31:27;;;;;;;;;;;;;;;0.08;74.65;96182.23;110112;1245;71911;-67
2023/03/12 00:33:56;;;;;;;;;;;;;;;0.02;74.49;96179.42;110117;1243;68497;-67
2023/03/12 00:36:27;;;;;;;;;;;;;;;-0.05;75.04;96176.38;110136;1244;69119;-67
2023/03/12 00:38:57;;;;;;;;;;;;;;;-0.11;75.05;96179.41;110151;1241;59695;-67
2023/03/12 00:41:27;;;;;;;;;;;;;;;-0.18;75.34;96177.69;110221;1243;59696;-67
2023/03/12 00:43:57;;;;;;;;;;;;;;;-0.24;75.37;96185.02;110180;1243;70620;-68
2023/03/12 00:46:26;;;;;;;;;;;;;;;-0.30;75.55;96192.17;110275;1241;69398;-67
2023/03/12 00:48:57;;;;;;;;;;;;;;;-0.36;75.81;96195.89;110156;1241;69187;-67
2023/03/12 00:51:28;;;;;;;;;;;;;;;-0.40;76.00;96198.80;110170;1245;59701;-68
2023/03/12 00:53:57;;;;;;;;;;;;;;;-0.46;76.29;96195.67;110210;1244;59702;-68
2023/03/12 00:56:27;;;;;;;;;;;;;;;-0.51;75.87;96196.94;110153;1245;70488;-68
2023/03/12 00:58:56;;;;;;;;;;;;;;;-0.56;76.26;96199.40;110171;1245;69231;-67
2023/03/12 01:01:26;;;;;;;;;;;;;;;-0.60;76.21;96207.98;110183;1252;68219;-67
2023/03/12 01:03:57;;;;;;;;;;;;;;;-0.62;75.99;96222.79;110181;1244;59725;-68
2023/03/12 01:06:27;;;;;;;;;;;;;;;-0.64;75.62;96230.61;110227;1245;59619;-67
2023/03/12 01:08:56;;;;;;;;;;;;;;;-0.68;76.36;96235.58;110175;1246;71276;-67
2023/03/12 01:11:25;;;;;;;;;;;;;;;-0.69;75.56;96243.67;110177;1242;69842;-68
2023/03/12 01:13:55;;;;;;;;;;;;;;;-0.70;75.52;96243.20;109517;1241;846951;-67
2023/03/12 01:16:27;;;;;;;;;;;;;;;-0.71;75.80;96242.90;110116;1245;59688;-68
2023/03/12 01:18:57;;;;;;;;;;;;;;;-0.71;75.63;96249.58;110197;1244;59664;-68
2023/03/12 01:21:29;;;;;;;;;;;;;;;-0.70;75.17;96251.42;110201;1241;71386;-68
2023/03/12 01:23:58;;;;;;;;;;;;;;;-0.70;75.13;96257.04;110090;1244;68826;-68
2023/03/12 01:26:29;;;;;;;;;;;;;;;-0.68;74.87;96268.80;110140;1244;69800;-68
2023/03/12 01:29:00;;;;;;;;;;;;;;;-0.67;74.83;96265.61;110137;1242;59796;-68
2023/03/12 01:31:30;;;;;;;;;;;;;;;-0.65;75.05;96277.69;110157;1241;59766;-68
2023/03/12 01:34:00;;;;;;;;;;;;;;;-0.62;75.39;96275.14;110125;1241;70726;-68
2023/03/12 01:36:30;;;;;;;;;;;;;;;-0.60;74.84;96278.48;110146;1246;69284;-67
2023/03/12 01:39:01;;;;;;;;;;;;;;;-0.57;75.25;96280.23;110143;1246;69583;-68
2023/03/12 01:41:32;;;;;;;;;;;;;;;-0.54;74.79;96282.11;110154;1241;59698;-68
2023/03/12 01:44:03;;;;;;;;;;;;;;;-0.51;74.65;96283.89;110174;1245;59646;-68
2023/03/12 01:46:37;;;;;;;;;;;;;;;-0.48;74.89;96288.89;110134;1244;71210;-68
2023/03/12 01:49:30;;;;;;;;;;;;;;;-0.48;74.49;96285.64;110174;1245;69715;-68
2023/03/12 01:52:03;;;;;;;;;;;;;;;-0.46;74.13;96284.52;110171;1241;69455;-68
2023/03/12 01:54:52;;;;;;;;;;;;;;;-0.44;74.10;96289.89;110116;1243;59763;-67
2023/03/12 01:57:33;;;;;;;;;;;;;;;-0.42;74.16;96291.36;110127;1242;59701;-68
2023/03/12 02:00:13;;;;;;;;;;;;;;;-0.43;73.84;96292.77;110077;1245;71974;-68
2023/03/12 02:02:43;;;;;;;;;;;;;;;-0.45;73.46;96291.84;110199;1245;69139;-68
2023/03/12 02:05:22;;;;;;;;;;;;;;;-0.43;73.63;96286.95;110101;1244;69329;-68
2023/03/12 02:07:52;;;;;;;;;;;;;;;-0.43;73.70;96289.20;110141;1245;59704;-68
2023/03/12 02:10:24;;;;;;;;;;;;;;;-0.45;73.58;96297.97;110208;1243;59706;-68
2023/03/12 02:12:54;;;;;;;;;;;;;;;-0.43;73.60;96299.12;110175;1243;71570;-68
2023/03/12 02:15:25;;;;;;;;;;;;;;;-0.42;73.62;96297.52;110177;1241;69110;-68
2023/03/12 02:17:54;;;;;;;;;;;;;;;-0.42;73.27;96295.63;110174;1244;68565;-68
2023/03/12 02:20:54;;;;;;;;;;;;;;;-0.44;73.15;96302.40;110190;1241;59686;-68
2023/03/12 02:23:34;;;;;;;;;;;;;;;-0.42;73.20;96311.38;109923;1248;59723;-67
2023/03/12 02:26:04;;;;;;;;;;;;;;;-0.43;72.99;96314.14;110086;1244;71794;-67
2023/03/12 02:28:41;;;;;;;;;;;;;;;-0.40;73.19;96322.61;110114;1245;67326;-68
2023/03/12 02:31:17;;;;;;;;;;;;;;;-0.40;73.36;96330.13;110106;1244;69627;-68
2023/03/12 02:33:47;;;;;;;;;;;;;;;-0.42;73.42;96336.73;110196;1244;59675;-66
2023/03/12 02:36:20;;;;;;;;;;;;;;;-0.41;73.18;96343.68;110194;1244;59676;-68
2023/03/12 02:38:52;;;;;;;;;;;;;;;-0.40;73.19;96346.03;110208;1241;71262;-68
2023/03/12 02:41:28;;;;;;;;;;;;;;;-0.39;72.99;96349.77;110164;1245;69263;-68
2023/03/12 02:44:18;;;;;;;;;;;;;;;-0.39;73.41;96354.87;110145;1241;68675;-67
2023/03/12 02:46:54;;;;;;;;;;;;;;;-0.37;73.40;96356.52;110173;1247;59807;-67
2023/03/12 02:49:26;;;;;;;;;;;;;;;-0.39;73.31;96353.51;110151;1245;59709;-68
2023/03/12 02:51:56;;;;;;;;;;;;;;;-0.38;73.59;96359.65;110134;1244;71845;-68
2023/03/12 02:54:30;;;;;;;;;;;;;;;-0.41;73.02;96361.63;110196;1242;68602;-68
2023/03/12 02:57:01;;;;;;;;;;;;;;;-0.40;73.66;96356.65;110149;1241;69313;-68
2023/03/12 02:59:32;;;;;;;;;;;;;;;-0.39;73.20;96360.70;110103;1244;59746;-67
2023/03/12 03:02:05;;;;;;;;;;;;;;;-0.38;73.43;96365.64;110179;1244;59663;-68
2023/03/12 03:04:34;;;;;;;;;;;;;;;-0.36;73.18;96373.79;110231;1244;69561;-68
2023/03/12 03:07:04;;;;;;;;;;;;;;;-0.36;73.25;96377.89;110122;1245;69269;-68
2023/03/12 03:09:36;;;;;;;;;;;;;;;-0.40;73.18;96383.88;110153;1247;69269;-68
2023/03/12 03:12:06;;;;;;;;;;;;;;;-0.40;73.41;96388.84;110138;1241;59721;-68
2023/03/12 03:14:37;;;;;;;;;;;;;;;-0.43;73.33;96399.23;110224;1241;59747;-68
2023/03/12 03:17:07;;;;;;;;;;;;;;;-0.41;73.46;96397.63;110209;1251;72422;-68
2023/03/12 03:19:36;;;;;;;;;;;;;;;-0.43;73.85;96402.34;110179;1243;69807;-68
2023/03/12 03:22:07;;;;;;;;;;;;;;;-0.43;73.66;96407.95;110163;1246;68535;-68
2023/03/12 03:24:37;;;;;;;;;;;;;;;-0.45;74.07;96411.32;110238;1245;59747;-67
2023/03/12 03:27:08;;;;;;;;;;;;;;;-0.43;74.10;96415.69;110248;1242;59622;-68
2023/03/12 03:29:38;;;;;;;;;;;;;;;-0.43;74.21;96421.29;110172;1244;71464;-67
2023/03/12 03:32:09;;;;;;;;;;;;;;;-0.43;74.33;96427.48;110170;1243;69113;-68
2023/03/12 03:34:39;;;;;;;;;;;;;;;-0.43;74.25;96432.27;110179;1241;68556;-68
2023/03/12 03:37:11;;;;;;;;;;;;;;;-0.44;74.40;96435.23;110183;1244;59703;-68
2023/03/12 03:39:45;;;;;;;;;;;;;;;-0.46;74.82;96432.94;110192;1242;59670;-68
2023/03/12 03:42:19;;;;;;;;;;;;;;;-0.51;75.01;96436.41;110163;1243;71327;-68
2023/03/12 03:44:51;;;;;;;;;;;;;;;-0.51;75.04;96447.86;110129;1245;69614;-68
2023/03/12 03:47:22;;;;;;;;;;;;;;;-0.52;75.15;96453.88;110092;1245;69285;-67
2023/03/12 03:49:53;;;;;;;;;;;;;;;-0.54;75.11;96459.09;110183;1244;59693;-68
2023/03/12 03:52:24;;;;;;;;;;;;;;;-0.58;75.83;96464.27;109966;1245;59709;-67
2023/03/12 03:54:55;;;;;;;;;;;;;;;-0.58;75.61;96468.38;110141;1241;71489;-68
2023/03/12 03:57:26;;;;;;;;;;;;;;;-0.60;75.87;96474.95;110186;1243;68473;-68
2023/03/12 03:59:59;;;;;;;;;;;;;;;-0.62;76.10;96477.10;110164;1244;68609;-68
2023/03/12 04:02:41;;;;;;;;;;;;;;;-0.65;76.41;96484.73;110133;1241;59739;-68
2023/03/12 04:05:11;;;;;;;;;;;;;;;-0.68;77.10;96490.85;110096;1241;59754;-68
2023/03/12 04:07:41;;;;;;;;;;;;;;;-0.69;77.21;96501.51;110146;1244;70759;-67
2023/03/12 04:10:11;;;;;;;;;;;;;;;-0.70;77.38;96503.80;110137;1251;68896;-68
2023/03/12 04:12:41;;;;;;;;;;;;;;;-0.73;77.78;96509.05;110092;1244;69825;-67
2023/03/12 04:15:11;;;;;;;;;;;;;;;-0.76;78.22;96510.55;110128;1243;59714;-68
2023/03/12 04:17:40;;;;;;;;;;;;;;;-0.75;77.79;96511.55;110227;1241;59706;-68
2023/03/12 04:20:11;;;;;;;;;;;;;;;-0.76;77.73;96519.27;110205;1241;70630;-67
2023/03/12 04:22:41;;;;;;;;;;;;;;;-0.81;78.64;96520.14;110189;1244;69157;-68
2023/03/12 04:25:10;;;;;;;;;;;;;;;-0.82;78.39;96523.80;110087;1247;69822;-67
2023/03/12 04:27:39;;;;;;;;;;;;;;;-0.85;78.53;96527.02;110122;1244;59754;-68
2023/03/12 04:30:09;;;;;;;;;;;;;;;-0.89;78.94;96534.69;110211;1244;59718;-67
2023/03/12 04:32:39;;;;;;;;;;;;;;;-0.89;78.64;96535.20;110148;1245;71418;-68
2023/03/12 04:35:09;;;;;;;;;;;;;;;-0.93;78.62;96544.42;110140;1241;68543;-68
2023/03/12 04:37:39;;;;;;;;;;;;;;;-0.95;78.85;96549.64;110139;1243;69297;-67
2023/03/12 04:40:09;;;;;;;;;;;;;;;-0.99;79.07;96556.83;110118;1242;59766;-68
2023/03/12 04:42:38;;;;;;;;;;;;;;;-0.96;79.29;96560.48;110167;1243;60133;-68
2023/03/12 04:45:09;;;;;;;;;;;;;;;-0.98;79.04;96567.73;110123;1244;71395;-67
2023/03/12 04:47:39;;;;;;;;;;;;;;;-0.99;78.77;96578.23;110117;1243;68494;-68
2023/03/12 04:50:11;;;;;;;;;;;;;;;-1.06;79.15;96585.34;110180;1244;67539;-68
2023/03/12 04:52:40;;;;;;;;;;;;;;;-1.09;79.00;96582.53;110168;1244;59685;-68
2023/03/12 04:55:09;;;;;;;;;;;;;;;-1.13;78.94;96583.91;110133;1244;59741;-68
2023/03/12 04:57:39;;;;;;;;;;;;;;;-1.22;79.59;96585.13;110125;1244;71464;-68
2023/03/12 05:00:11;;;;;;;;;;;;;;;-1.26;79.22;96597.77;110165;1241;68489;-67
2023/03/12 05:02:41;;;;;;;;;;;;;;;-1.32;79.28;96603.61;110157;1247;69260;-68
2023/03/12 05:05:11;;;;;;;;;;;;;;;-1.36;79.30;96600.84;110110;1244;59706;-68
2023/03/12 05:07:40;;;;;;;;;;;;;;;-1.38;78.95;96606.94;110285;1241;59695;-68
2023/03/12 05:10:09;;;;;;;;;;;;;;;-1.40;79.03;96615.57;110115;1241;71997;-68
2023/03/12 05:12:39;;;;;;;;;;;;;;;-1.44;79.47;96617.23;110093;1241;69231;-67
2023/03/12 05:15:09;;;;;;;;;;;;;;;-1.46;79.24;96622.63;110101;1241;69259;-68
2023/03/12 05:17:40;;;;;;;;;;;;;;;-1.45;79.14;96621.71;110205;1241;59705;-67
2023/03/12 05:20:09;;;;;;;;;;;;;;;-1.42;79.00;96626.06;110130;1244;59721;-67
2023/03/12 05:22:39;;;;;;;;;;;;;;;-1.42;78.89;96634.25;110146;1244;70415;-67
2023/03/12 05:25:09;;;;;;;;;;;;;;;-1.35;78.71;96637.08;110143;1244;69142;-67
2023/03/12 05:27:38;;;;;;;;;;;;;;;-1.30;78.06;96646.46;110145;1244;69142;-68
2023/03/12 05:30:08;;;;;;;;;;;;;;;-1.27;77.54;96648.76;110134;1244;59696;-68
2023/03/12 05:32:37;;;;;;;;;;;;;;;-1.20;77.53;96654.64;110192;1245;59782;-67
2023/03/12 05:35:06;;;;;;;;;;;;;;;-1.09;77.45;96658.80;110150;1244;70998;-68
2023/03/12 05:37:35;;;;;;;;;;;;;;;-0.90;77.38;96659.45;110147;1241;69219;-68
2023/03/12 05:40:06;;;;;;;;;;;;;;;-0.70;76.17;96662.95;110162;1241;68536;-68
2023/03/12 05:42:36;;;;;;;;;;;;;;;-0.56;74.26;96669.03;110148;1244;59672;-68
2023/03/12 05:45:07;;;;;;;;;;;;;;;-0.41;73.72;96671.16;110197;1243;59628;-68
2023/03/12 05:47:37;;;;;;;;;;;;;;;-0.18;73.30;96678.61;110070;1241;71940;-68
2023/03/12 05:50:08;;;;;;;;;;;;;;;-0.00;71.89;96683.35;110202;1244;69787;-68
2023/03/12 05:52:37;;;;;;;;;;;;;;;0.10;70.79;96689.08;110220;1245;69285;-68
2023/03/12 05:55:06;;;;;;;;;;;;;;;0.29;70.50;96686.05;110131;1243;59738;-68
2023/03/12 05:57:35;;;;;;;;;;;;;;;0.36;69.57;96701.67;110154;1243;59747;-68
2023/03/12 06:00:04;;;;;;;;;;;;;;;0.61;69.61;96707.64;110248;1243;70249;-69
2023/03/12 06:02:40;;;;;;;;;;;;;;;0.98;69.00;96708.17;110178;1242;69221;-68
2023/03/12 06:05:10;;;;;;;;;;;;;;;1.39;68.23;96715.02;110110;1243;69263;-68
2023/03/12 06:07:39;;;;;;;;;;;;;;;1.35;65.68;96722.42;110183;1244;60126;-69
2023/03/12 06:10:08;;;;;;;;;;;;;;;1.31;65.41;96724.12;110199;1245;59678;-68
2023/03/12 06:12:37;;;;;;;;;;;;;;;1.81;64.79;96739.47;110178;1242;71378;-67
2023/03/12 06:15:07;;;;;;;;;;;;;;;1.33;64.41;96743.09;110222;1244;69845;-68
2023/03/12 06:17:36;;;;;;;;;;;;;;;1.69;64.43;96748.09;110292;1241;69216;-67
2023/03/12 06:20:06;;;;;;;;;;;;;;;2.18;63.56;96747.24;110224;1242;59709;-66
2023/03/12 06:22:35;;;;;;;;;;;;;;;2.15;62.24;96752.39;110192;1244;59682;-69
2023/03/12 06:25:04;;;;;;;;;;;;;;;2.03;62.38;96756.09;110119;1245;71969;-67
2023/03/12 06:27:33;;;;;;;;;;;;;;;1.73;61.75;96764.41;110141;1242;68773;-67
2023/03/12 06:30:03;;;;;;;;;;;;;;;1.43;62.51;96768.23;110166;1241;68407;-67
2023/03/12 06:32:31;;;;;;;;;;;;;;;1.91;62.36;96770.27;110250;1241;59681;-67
2023/03/12 06:35:01;;;;;;;;;;;;;;;2.27;60.91;96767.94;110159;1244;59726;-67
2023/03/12 06:37:30;;;;;;;;;;;;;;;2.77;60.25;96770.76;110139;1241;70620;-67
2023/03/12 06:39:58;;;;;;;;;;;;;;;2.85;58.25;96756.91;110226;1244;69056;-67
2023/03/12 06:42:27;;;;;;;;;;;;;;;3.20;58.21;96766.25;110130;1241;68968;-67
2023/03/12 06:44:56;;;;;;;;;;;;;;;3.19;56.86;96770.62;110213;1244;59678;-67
2023/03/12 06:47:25;;;;;;;;;;;;;;;3.46;57.25;96778.10;110214;1244;59698;-68
2023/03/12 06:49:53;;;;;;;;;;;;;;;3.62;56.30;96778.09;110215;1241;71842;-68
2023/03/12 06:52:22;;;;;;;;;;;;;;;3.54;56.32;96781.98;110151;1244;69032;-68
2023/03/12 06:54:50;;;;;;;;;;;;;;;3.56;55.67;96785.30;110140;1244;69069;-68
2023/03/12 06:57:20;;;;;;;;;;;;;;;3.28;54.81;96790.11;110143;1242;59747;-68
2023/03/12 06:59:48;;;;;;;;;;;;;;;3.23;56.07;96794.69;110193;1244;59701;-68
2023/03/12 07:02:17;;;;;;;;;;;;;;;3.44;55.93;96800.25;110186;1245;71387;-68
2023/03/12 07:04:46;;;;;;;;;;;;;;;3.80;55.87;96809.98;110130;1243;69013;-68
2023/03/12 07:07:15;;;;;;;;;;;;;;;3.71;53.89;96818.30;110202;1242;69684;-68
2023/03/12 07:09:44;;;;;;;;;;;;;;;3.87;54.12;96826.37;110179;1243;59621;-68
2023/03/12 07:12:12;;;;;;;;;;;;;;;3.40;54.16;96831.11;110136;1243;59686;-68
2023/03/12 07:14:41;;;;;;;;;;;;;;;2.67;55.58;96834.42;110135;1241;71651;-67
2023/03/12 07:17:11;;;;;;;;;;;;;;;2.52;57.11;96829.65;110187;1242;68390;-68
2023/03/12 07:19:39;;;;;;;;;;;;;;;3.20;55.46;96839.06;110191;1242;69349;-68
2023/03/12 07:22:08;;;;;;;;;;;;;;;3.77;55.31;96846.91;110167;1241;59740;-68
2023/03/12 07:24:37;;;;;;;;;;;;;;;3.82;53.82;96852.61;110179;1243;59656;-68
2023/03/12 07:27:05;;;;;;;;;;;;;;;3.09;54.53;96855.67;110136;1244;69815;-68
2023/03/12 07:29:34;;;;;;;;;;;;;;;3.34;54.36;96857.11;110184;1241;69241;-68
2023/03/12 07:32:03;;;;;;;;;;;;;;;3.49;53.62;96857.36;110161;1241;69601;-68
2023/03/12 07:34:32;;;;;;;;;;;;;;;3.70;53.71;96863.46;110238;1242;59715;-68
2023/03/12 07:37:01;;;;;;;;;;;;;;;4.15;51.76;96866.02;110177;1244;59666;-68
2023/03/12 07:39:30;;;;;;;;;;;;;;;4.19;51.64;96874.24;110223;1244;71804;-69
2023/03/12 07:41:58;;;;;;;;;;;;;;;3.84;51.77;96871.19;110165;1244;69207;-67
2023/03/12 07:44:28;;;;;;;;;;;;;;;4.39;51.09;96874.11;110169;1244;70267;-68
2023/03/12 07:46:57;;;;;;;;;;;;;;;4.87;50.56;96877.23;110142;1243;59667;-68
2023/03/12 07:49:38;;;;;;;;;;;;;;;5.01;49.12;96891.12;110164;1243;59679;-68
2023/03/12 07:52:10;;;;;;;;;;;;;;;3.87;50.19;96888.04;110179;1245;70071;-68
2023/03/12 07:54:38;;;;;;;;;;;;;;;3.78;50.28;96892.87;110211;1242;69662;-68
2023/03/12 07:57:07;;;;;;;;;;;;;;;4.01;50.65;96901.95;110227;1241;68533;-68
2023/03/12 07:59:36;;;;;;;;;;;;;;;3.76;50.46;96905.88;110133;1243;59760;-68
2023/03/12 08:02:05;;;;;;;;;;;;;;;3.76;49.99;96912.94;110129;1241;59729;-68
2023/03/12 08:04:34;;;;;;;;;;;;;;;3.75;50.38;96907.52;110145;1241;71936;-68
2023/03/12 08:07:03;;;;;;;;;;;;;;;4.01;50.27;96912.66;110162;1241;69153;-68
2023/03/12 08:09:34;;;;;;;;;;;;;;;4.02;50.21;96915.72;110169;1241;69104;-68
2023/03/12 08:12:03;;;;;;;;;;;;;;;4.11;50.03;96922.63;110240;1243;59683;-68
2023/03/12 08:14:32;;;;;;;;;;;;;;;4.05;50.29;96925.87;110179;1241;59729;-68
2023/03/12 08:17:01;;;;;;;;;;;;;;;3.81;50.62;96936.29;110175;1241;71289;-68
2023/03/12 08:19:29;;;;;;;;;;;;;;;3.68;51.67;96949.10;110131;1244;69571;-68
2023/03/12 08:21:58;;;;;;;;;;;;;;;3.48;51.16;96954.58;110140;1241;70037;-68
2023/03/12 08:24:27;;;;;;;;;;;;;;;3.42;50.31;96953.17;110208;1243;59740;-66
2023/03/12 08:26:55;;;;;;;;;;;;;;;3.18;50.55;96960.61;110165;1244;59634;-67
2023/03/12 08:29:24;;;;;;;;;;;;;;;2.97;51.93;96966.98;110108;1241;71395;-67
2023/03/12 08:31:52;;;;;;;;;;;;;;;2.82;52.34;96968.77;110248;1243;68149;-70
2023/03/12 08:34:33;;;;;;;;;;;;;;;2.84;52.24;96975.16;110155;1241;68818;-67
2023/03/12 08:37:02;;;;;;;;;;;;;;;3.30;51.99;96974.45;110317;1244;59607;-67
2023/03/12 08:39:31;;;;;;;;;;;;;;;3.84;50.28;96968.52;110192;1244;59662;-67
2023/03/12 08:41:59;;;;;;;;;;;;;;;4.19;49.95;96965.29;110154;1241;71269;-67
2023/03/12 08:44:28;;;;;;;;;;;;;;;4.03;48.77;96968.59;110214;1241;69200;-68
2023/03/12 08:46:56;;;;;;;;;;;;;;;3.77;49.38;96965.63;110171;1241;69738;-67
2023/03/12 08:49:25;;;;;;;;;;;;;;;3.89;49.95;96980.38;110186;1241;59748;-67
2023/03/12 08:51:53;;;;;;;;;;;;;;;4.13;48.80;96984.05;110301;1242;59692;-67
2023/03/12 08:54:22;;;;;;;;;;;;;;;4.01;48.46;96984.04;110181;1244;70640;-69
2023/03/12 08:56:51;;;;;;;;;;;;;;;4.13;48.46;96981.88;110208;1241;69251;-67
2023/03/12 08:59:21;;;;;;;;;;;;;;;4.02;48.67;96983.83;110195;1241;69104;-68
2023/03/12 09:01:49;;;;;;;;;;;;;;;4.04;48.35;96987.14;110104;1241;59722;-67
2023/03/12 09:04:18;;;;;;;;;;;;;;;4.26;48.44;96985.95;110201;1244;59672;-68
2023/03/12 09:06:47;;;;;;;;;;;;;;;4.32;47.82;96994.97;110183;1245;69888;-68
2023/03/12 09:09:16;;;;;;;;;;;;;;;4.59;47.51;96999.70;110186;1244;69278;-68
2023/03/12 09:11:44;;;;;;;;;;;;;;;4.68;46.69;97004.69;110255;1241;69147;-68
2023/03/12 09:14:12;;;;;;;;;;;;;;;4.81;46.05;97002.98;110150;1243;59741;-68
2023/03/12 09:17:01;;;;;;;;;;;;;;;5.17;45.69;97007.30;110223;1241;59646;-68
2023/03/12 09:19:30;;;;;;;;;;;;;;;5.39;45.29;97002.58;110205;1241;70716;-68
2023/03/12 09:21:58;;;;;;;;;;;;;;;5.82;45.24;97007.81;110180;1241;69030;-68
2023/03/12 09:36:24;;;;;;;3.20;2.10;;;;;;;6.99;40.32;97023.17;107356;1270;609952;-68
2023/03/12 09:38:54;;;;;;;2.60;2.30;;;;;;;7.38;40.94;97030.20;109009;1251;255897;-67
2023/03/12 09:41:26;;;;;;;3.20;2.20;;;;;;;7.72;41.25;97032.41;109407;1254;57775;-69
2023/03/12 09:44:19;;;;;;;2.90;2.40;;;;;;;7.63;40.73;97037.58;109301;1253;69499;-65
2023/03/12 09:46:55;;;;;;;2.30;2.00;;;;;;;7.14;39.61;97039.41;109350;1252;69056;-67
2023/03/12 09:49:33;;;;;;;2.70;2.40;;;;;;;5.72;41.41;97049.54;109302;1254;68890;-67
2023/03/12 09:52:17;;;;;;;3.50;2.20;;;;;;;5.37;41.55;97048.83;109280;1254;57631;-68
2023/03/12 09:55:09;;;;;;;2.40;2.00;;;;;;;5.47;43.00;97055.13;109264;1254;57693;-68
2023/03/12 09:57:38;;;;;;;2.70;2.30;;;;;;;5.81;42.36;97058.19;109325;1253;69661;-68
2023/03/12 10:00:16;;;;;;;2.50;1.90;;;;;;;6.21;42.68;97060.28;109308;1254;69080;-68
2023/03/12 10:03:22;;;;;;;2.90;2.10;;;;;;;6.43;41.66;97058.40;109316;1254;69846;-66
2023/03/12 10:06:25;;;;;;;3.60;2.20;;;;;;;6.00;41.37;97060.02;109254;1254;58081;-69
2023/03/12 10:09:24;;;;;;;2.90;2.00;;;;;;;6.57;41.54;97054.99;108653;1254;58143;-68
2023/03/12 10:12:05;;;;;;;2.80;2.10;;;;;;;7.59;41.03;97061.75;109280;1254;70330;-69
2023/03/12 10:14:48;;;;;;;2.90;1.90;;;;;;;8.43;39.66;97052.58;109225;1254;69122;-69
2023/03/12 10:17:35;;;;;;;3.00;2.00;;;;;;;8.95;38.47;97057.59;109212;1254;69884;-69
2023/03/12 10:20:21;;;;;;;3.60;1.80;;;;;;;8.98;37.51;97063.46;109330;1253;58150;-68
2023/03/12 10:23:02;;;;;;;2.00;1.70;;;;;;;9.05;36.21;97059.81;109655;1250;58034;-69
2023/03/12 10:25:44;;;;;;;2.60;1.90;;;;;;;9.90;36.29;97061.22;109597;1251;69568;-69
2023/03/12 10:28:36;;;;;;;2.40;1.90;;;;;;;9.39;34.53;97060.86;109616;1250;69808;-69
2023/03/12 10:31:18;;;;;;;3.00;1.70;;;;;;;9.75;36.51;97056.55;109761;1245;69368;-69
2023/03/12 10:33:53;;;;;;;2.10;1.50;;;;;;;11.31;34.51;97055.92;109750;1248;58140;-69
2023/03/12 10:36:28;;;;;;;2.20;1.60;;;;;;;12.02;33.73;97060.58;109789;1247;58031;-68
2023/03/12 10:38:57;;;;;;;1.90;1.60;;;;;;;11.87;32.73;97060.59;109831;1246;70681;-69
2023/03/12 10:41:31;;;;;;;2.70;1.70;;;;;;;11.86;32.81;97060.84;109770;1247;70196;-69
2023/03/12 10:44:07;;;;;;;2.60;1.60;;;;;;;11.18;31.91;97062.91;109720;1247;68088;-68
2023/03/12 10:59:29;;;;;;;2.40;1.90;;;;;;;13.11;30.46;97058.99;107253;1273;609581;-69
2023/03/12 11:01:59;;;;;;;2.60;1.60;;;;;;;14.16;29.17;97062.41;108909;1257;332057;-67
2023/03/12 11:04:31;;;;;;;2.50;1.70;;;;;;;14.66;28.27;97059.36;109320;1255;57670;-68
2023/03/12 11:07:14;;;;;;;2.00;1.60;;;;;;;14.84;27.99;97060.14;110141;1243;68785;-68
2023/03/12 11:09:43;;;;;;;1.80;1.40;;;;;;;15.44;27.03;97068.69;110206;1244;68464;-68
2023/03/12 11:12:27;;;;;;;2.10;1.60;;;;;;;14.76;26.23;97067.52;110105;1241;69238;-67
2023/03/12 11:14:56;;;;;;;2.00;1.50;;;;;;;15.07;27.52;97069.06;110153;1241;57706;-66
2023/03/12 11:17:27;;;;;;;;;;;;;;;15.19;26.03;97067.70;110126;1241;57641;-67
2023/03/12 11:19:56;;;;;;;2.20;1.80;;;;;;;15.70;25.02;97062.77;110112;1241;68596;-68
2023/03/12 11:22:33;;;;;;;2.20;1.30;;;;;;;15.24;24.59;97064.65;110152;1243;68662;-67
2023/03/12 11:25:06;;;;;;;2.00;1.50;;;;;;;13.98;25.50;97064.73;110111;1244;69863;-68
2023/03/12 11:27:48;;;;;;;2.40;1.40;;;;;;;12.93;27.12;97066.30;110113;1245;58453;-68
2023/03/12 11:30:23;;;;;;;3.10;1.70;;;;;;;12.12;28.30;97070.34;110146;1241;58076;-67
2023/03/12 11:32:52;;;;;;;2.30;1.60;;;;;;;12.75;28.11;97063.20;110185;1244;70396;-67
2023/03/12 11:35:38;;;;;;;2.00;1.50;;;;;;;13.67;28.04;97065.52;110151;1245;69263;-69
2023/03/12 11:38:17;;;;;;;2.70;2.20;;;;;;;13.75;27.58;97066.72;110076;1241;69206;-68
2023/03/12 11:41:07;;;;;;;3.30;2.10;;;;;;;13.95;26.90;97065.25;110126;1245;58101;-69
2023/03/12 11:44:14;;;;;;;2.50;1.80;;;;;;;14.89;27.35;97060.34;110213;1245;58476;-69
2023/03/12 11:46:58;;;;;;;2.30;1.50;;;;;;;13.10;26.29;97062.06;109660;1248;69323;-68
2023/03/12 11:49:39;;;;;;;2.60;1.50;;;;;;;13.11;27.03;97065.45;109994;1245;68348;-68
2023/03/12 11:52:26;;;;;;;2.10;1.60;;;;;;;13.72;26.83;97068.95;110057;1241;68884;-68
2023/03/12 11:55:23;;;;;;;2.50;1.60;;;;;;;14.07;27.07;97063.11;110096;1244;58208;-68
2023/03/12 11:58:07;;;;;;;2.50;1.60;;;;;;;14.53;26.16;97070.73;110144;1243;58071;-68
2023/03/12 12:01:07;;;;;;;1.60;1.20;;;;;;;15.40;26.32;97072.78;110167;1244;69739;-68
2023/03/12 12:03:51;;;;;;;2.60;1.70;;;;;;;15.52;24.58;97075.64;110084;1241;69219;-69
2023/03/12 12:06:38;;;;;;;2.20;1.60;;;;;;;15.55;24.84;97070.11;110093;1244;68355;-67
2023/03/12 12:09:19;;;;;;;2.50;1.60;;;;;;;15.64;25.19;97070.37;110180;1244;58078;-68
2023/03/12 12:12:12;;;;;;;1.80;1.30;;;;;;;15.20;24.89;97070.61;109961;1244;58052;-67
2023/03/12 12:14:43;;;;;;;2.30;1.60;;;;;;;12.92;27.02;97075.16;109888;1244;68660;-67
2023/03/12 12:17:20;;;;;;;2.00;1.50;;;;;;;13.09;27.15;97071.23;109891;1244;69699;-68
2023/03/12 12:20:40;;;;;;;3.00;2.10;;;;;;;13.96;27.13;97068.45;110185;1241;68376;-69
2023/03/12 12:23:09;;;;;;;2.00;1.60;;;;;;;13.82;26.97;97072.92;109645;1247;58212;-68
2023/03/12 12:26:05;;;;;;;2.40;1.60;;;;;;;13.95;27.08;97077.34;110089;1245;58044;-67
2023/03/12 12:28:55;;;;;;;3.60;2.10;;;;;;;14.07;26.77;97074.98;110128;1241;70372;-68
2023/03/12 12:31:39;;;;;;;2.50;1.80;;;;;;;14.28;26.80;97076.92;110103;1242;68126;-67
2023/03/12 12:34:20;;;;;;;2.10;1.30;;;;;;;15.01;25.37;97071.63;110122;1244;69084;-67
2023/03/12 12:36:56;;;;;;;1.90;1.70;;;;;;;14.27;24.85;97077.98;110121;1244;58068;-68
2023/03/12 12:39:34;;;;;;;2.70;2.00;;;;;;;13.47;25.79;97075.95;110183;1244;58071;-68
2023/03/12 12:42:06;;;;;;;4.00;2.20;;;;;;;12.03;27.50;97076.81;110076;1244;69201;-67
2023/03/12 12:44:47;;;;;;;3.20;1.60;;;;;;;12.52;27.48;97080.07;110002;1242;67514;-67
2023/03/12 12:47:27;;;;;;;3.30;1.60;;;;;;;12.90;27.91;97076.79;110155;1241;67813;-66
2023/03/12 12:49:57;;;;;;;;;;;;;;;13.13;26.85;97080.34;110114;1244;58075;-68
2023/03/12 12:52:26;;;;;;;1.80;1.10;;;;;;;13.75;27.23;97080.76;110133;1244;58098;-67
2023/03/12 12:55:04;;;;;;;3.40;2.10;;;;;;;13.82;26.63;97075.36;110119;1244;69631;-67
2023/03/12 12:57:33;;;;;;;2.60;1.70;;;;;;;13.87;27.16;97077.55;110169;1244;69785;-69
2023/03/12 13:00:14;;;;;;;2.40;1.40;;;;;;;14.54;26.58;97080.11;110113;1244;69171;-68
2023/03/12 13:02:46;;;;;;;2.40;1.80;;;;;;;14.86;26.50;97074.47;110111;1245;58141;-68
2023/03/12 13:05:24;;;;;;;2.30;1.40;;;;;;;15.51;25.09;97084.34;110182;1241;58112;-68
2023/03/12 13:07:53;;;;;;;2.30;1.60;;;;;;;15.31;24.32;97086.13;110247;1242;69590;-67
2023/03/12 13:10:31;;;;;;;2.10;1.70;;;;;;;15.36;24.49;97090.34;110212;1241;69105;-68
2023/03/12 13:13:06;;;;;;;1.90;1.40;;;;;;;15.02;23.57;97091.88;110279;1244;69272;-69
2023/03/12 13:15:42;;;;;;;2.10;1.50;;;;;;;14.74;23.60;97089.21;110212;1244;58518;-68